Time;durP1;ratioP1;P1;durP2;ratioP2;P2;SDS_P1;SDS_P2;PMS_P1;PMS_P2;Temp;Humidity;BMP_temperature;BMP_pressure;BME280_temperature;BME280_humidity;BME280_pressure;Samples;Min_cycle;Max_cycle;Signal;HPM_P1;HPM_P2
2021/06/01 00:01:23;;;;;;;0.45;0.45;;;;;;;10.39;100.00;97127.81;5033006;28;20021;-80
2021/06/01 00:03:49;;;;;;;0.22;0.13;;;;;;;10.29;100.00;97133.78;5016695;28;20519;-80
2021/06/01 00:06:15;;;;;;;0.90;0.90;;;;;;;10.19;100.00;97130.03;5033017;28;20095;-81
2021/06/01 00:08:41;;;;;;;1.27;0.60;;;;;;;10.17;100.00;97134.63;5013271;28;20103;-80
2021/06/01 00:11:07;;;;;;;0.20;0.20;;;;;;;10.19;100.00;97137.19;5030290;28;20041;-80
2021/06/01 00:13:34;;;;;;;0.55;0.55;;;;;;;10.11;100.00;97129.66;5013369;28;20036;-80
2021/06/01 00:15:59;;;;;;;0.50;0.47;;;;;;;10.13;100.00;97129.53;5014866;28;20033;-80
2021/06/01 00:18:25;;;;;;;1.25;0.47;;;;;;;10.19;100.00;97126.47;5033587;28;20037;-79
2021/06/01 00:20:51;;;;;;;0.47;0.43;;;;;;;10.17;100.00;97128.41;5020426;28;20024;-80
2021/06/01 00:23:16;;;;;;;0.85;0.55;;;;;;;10.14;100.00;97126.81;5035196;28;20033;-80
2021/06/01 00:25:42;;;;;;;1.25;0.55;;;;;;;10.16;100.00;97127.56;5020269;28;20028;-80
2021/06/01 00:28:07;;;;;;;1.70;0.60;;;;;;;10.20;100.00;97122.88;5016590;28;20033;-80
2021/06/01 00:30:33;;;;;;;7.47;0.60;;;;;;;10.26;100.00;97128.66;5020176;28;20063;-80
2021/06/01 00:32:58;;;;;;;0.90;0.30;;;;;;;10.38;100.00;97126.97;5036638;28;20024;-79
2021/06/01 00:35:24;;;;;;;0.22;0.22;;;;;;;10.45;100.00;97132.75;5036544;28;20040;-80
2021/06/01 00:37:50;;;;;;;0.30;0.30;;;;;;;10.49;100.00;97140.44;5016839;28;20020;-80
2021/06/01 00:40:15;;;;;;;0.80;0.45;;;;;;;10.48;100.00;97129.88;5032981;28;20140;-80
2021/06/01 00:42:41;;;;;;;1.00;0.50;;;;;;;10.42;100.00;97123.13;5016577;28;20049;-80
2021/06/01 00:45:07;;;;;;;0.20;0.20;;;;;;;10.40;100.00;97121.53;5036388;28;20028;-80
2021/06/01 00:47:33;;;;;;;0.10;0.10;;;;;;;10.46;100.00;97118.44;5033007;28;20064;-80
2021/06/01 00:49:58;;;;;;;0.00;0.00;;;;;;;10.43;100.00;97113.28;5036474;28;20436;-80
2021/06/01 00:52:24;;;;;;;0.25;0.20;;;;;;;10.40;100.00;97109.00;5017281;28;20119;-80
2021/06/01 00:54:49;;;;;;;0.28;0.28;;;;;;;10.34;100.00;97106.72;5036094;28;20032;-80
2021/06/01 00:57:15;;;;;;;1.20;0.50;;;;;;;10.36;100.00;97122.69;5019354;28;20372;-80
2021/06/01 00:59:40;;;;;;;0.57;0.43;;;;;;;10.34;100.00;97120.09;5036076;28;20031;-80
2021/06/01 01:02:06;;;;;;;0.40;0.38;;;;;;;10.37;100.00;97124.41;5016178;28;20104;-79
2021/06/01 01:04:32;;;;;;;1.83;0.90;;;;;;;10.44;100.00;97125.69;5016347;28;20119;-80
2021/06/01 01:07:15;;;;;;;1.75;0.30;;;;;;;10.47;100.00;97125.47;5016497;28;20041;-80
2021/06/01 01:09:43;;;;;;;0.20;0.20;;;;;;;10.46;100.00;97118.44;5021677;28;20086;-80
2021/06/01 01:12:14;;;;;;;0.20;0.20;;;;;;;10.44;100.00;97121.19;5035690;28;20035;-80
2021/06/01 01:14:48;;;;;;;0.30;0.25;;;;;;;10.48;100.00;97122.72;5033906;28;20021;-80
2021/06/01 01:17:18;;;;;;;0.10;0.10;;;;;;;10.51;100.00;97111.81;5015936;28;20125;-79
2021/06/01 01:20:25;;;;;;;0.38;0.38;;;;;;;10.68;100.00;97124.00;5032487;28;20494;-80
2021/06/01 01:22:53;;;;;;;0.60;0.43;;;;;;;10.64;100.00;97117.16;4992330;28;20029;-79
2021/06/01 01:25:34;;;;;;;0.35;0.35;;;;;;;10.65;100.00;97113.50;5018954;28;20491;-80
2021/06/01 01:28:06;;;;;;;0.20;0.20;;;;;;;10.68;100.00;97116.84;5015838;28;20140;-79
2021/06/01 01:30:53;;;;;;;0.30;0.22;;;;;;;10.66;100.00;97118.78;5041456;28;20072;-79
2021/06/01 01:33:25;;;;;;;0.30;0.30;;;;;;;10.68;100.00;97114.16;5018640;28;20025;-79
2021/06/01 01:35:55;;;;;;;;;;;;;;;10.71;100.00;97123.78;5036164;28;20093;-79
2021/06/01 01:38:23;;;;;;;0.70;0.70;;;;;;;10.66;100.00;97121.44;5032953;28;20014;-79
2021/06/01 01:40:50;;;;;;;0.40;0.40;;;;;;;10.67;100.00;97106.25;5018762;28;20031;-79
2021/06/01 01:43:19;;;;;;;1.20;0.65;;;;;;;10.71;100.00;97102.38;5035319;28;20132;-79
2021/06/01 01:45:48;;;;;;;0.30;0.30;;;;;;;10.83;100.00;97106.88;5015506;28;20033;-80
2021/06/01 01:51:19;;;;;;;4.38;1.25;;;;;;;10.86;100.00;97103.97;5032410;28;20044;-79
2021/06/01 01:53:51;;;;;;;0.30;0.30;;;;;;;10.93;100.00;97109.75;5017486;28;20511;-80
2021/06/01 01:56:19;;;;;;;0.13;0.13;;;;;;;10.90;100.00;97100.16;5031561;28;20484;-79
2021/06/01 01:58:47;;;;;;;0.82;0.82;;;;;;;10.98;100.00;97099.63;5035403;28;20139;-79
2021/06/01 02:01:14;;;;;;;0.30;0.20;;;;;;;10.95;100.00;97095.31;5031608;28;20017;-81
2021/06/01 02:03:40;;;;;;;0.40;0.30;;;;;;;10.95;100.00;97098.00;5015129;28;20083;-80
2021/06/01 02:06:05;;;;;;;0.10;0.10;;;;;;;10.85;100.00;97096.94;5015071;28;20029;-79
2021/06/01 02:08:31;;;;;;;1.02;0.60;;;;;;;10.78;100.00;97098.31;5014879;28;20037;-80
2021/06/01 02:10:57;;;;;;;0.10;0.10;;;;;;;10.78;100.00;97101.00;5034648;28;20403;-80
2021/06/01 02:13:27;;;;;;;0.40;0.40;;;;;;;10.67;100.00;97090.22;5034663;28;20029;-80
2021/06/01 02:15:54;;;;;;;2.05;0.52;;;;;;;10.82;100.00;97110.53;5015227;28;20582;-79
2021/06/01 02:18:19;;;;;;;0.88;0.32;;;;;;;10.80;100.00;97107.09;5014681;28;20558;-80
2021/06/01 02:20:47;;;;;;;3.00;0.90;;;;;;;10.72;100.00;97112.13;5014414;28;20029;-80
2021/06/01 02:26:06;;;;;;;0.95;0.35;;;;;;;10.67;100.00;97088.41;5037333;28;20108;-80
2021/06/01 02:28:35;;;;;;;0.80;0.55;;;;;;;10.78;100.00;97103.69;5014971;28;20083;-79
2021/06/01 02:31:06;;;;;;;0.47;0.47;;;;;;;10.75;100.00;97098.53;5018302;28;20067;-79
2021/06/01 02:33:35;;;;;;;1.38;0.60;;;;;;;10.86;100.00;97101.31;5034274;28;20438;-79
2021/06/01 02:36:01;;;;;;;0.93;0.63;;;;;;;10.85;100.00;97102.28;5017836;28;20466;-80
2021/06/01 02:38:32;;;;;;;0.52;0.52;;;;;;;10.80;100.00;97088.38;5013587;28;20033;-80
2021/06/01 02:41:00;;;;;;;3.47;0.73;;;;;;;10.87;100.00;97093.19;5014477;28;20052;-80
2021/06/01 02:43:26;;;;;;;0.55;0.55;;;;;;;10.89;100.00;97093.06;5013968;28;20053;-79
2021/06/01 02:45:52;;;;;;;1.10;0.60;;;;;;;10.92;100.00;97094.69;5014287;28;20031;-80
2021/06/01 02:48:20;;;;;;;1.20;0.57;;;;;;;10.92;100.00;97098.19;5014063;28;20029;-80
2021/06/01 02:50:48;;;;;;;0.80;0.63;;;;;;;10.74;100.00;97078.09;5013891;28;20037;-80
2021/06/01 02:53:14;;;;;;;0.90;0.80;;;;;;;10.86;100.00;97098.63;5030723;28;20033;-80
2021/06/01 02:55:41;;;;;;;1.65;0.50;;;;;;;10.94;100.00;97104.31;5017311;28;20029;-80
2021/06/01 02:58:09;;;;;;;2.80;1.58;;;;;;;11.03;100.00;97111.69;5033938;28;20060;-79
2021/06/01 03:00:36;;;;;;;2.33;1.35;;;;;;;11.06;100.00;97111.47;5030420;28;20029;-80
2021/06/01 03:03:10;;;;;;;1.65;0.80;;;;;;;10.98;100.00;97097.81;5014056;28;20408;-79
2021/06/01 03:05:36;;;;;;;2.47;0.73;;;;;;;11.04;100.00;97115.25;5033794;28;20418;-80
2021/06/01 03:08:26;;;;;;;2.78;0.85;;;;;;;11.07;100.00;97117.69;5030351;28;20033;-80
2021/06/01 03:10:51;;;;;;;0.52;0.52;;;;;;;11.05;100.00;97123.16;5034113;28;20025;-79
2021/06/01 03:13:17;;;;;;;0.50;0.50;;;;;;;10.97;100.00;97105.91;5017023;28;20086;-79
2021/06/01 03:15:42;;;;;;;0.75;0.65;;;;;;;10.99;100.00;97110.19;5015343;28;20029;-79
2021/06/01 03:18:08;;;;;;;0.57;0.57;;;;;;;11.00;100.00;97111.06;5030250;28;20111;-79
2021/06/01 03:20:34;;;;;;;0.45;0.43;;;;;;;10.99;100.00;97106.66;5013821;28;20033;-80
2021/06/01 03:22:59;;;;;;;0.20;0.20;;;;;;;11.02;100.00;97109.97;5013558;28;20477;-80
2021/06/01 03:25:25;;;;;;;0.57;0.57;;;;;;;10.97;100.00;97106.78;5013953;28;20057;-79
2021/06/01 03:27:51;;;;;;;0.47;0.32;;;;;;;10.96;100.00;97106.88;5016763;28;20511;-80
2021/06/01 03:30:16;;;;;;;0.73;0.38;;;;;;;10.99;100.00;97110.19;5029919;28;20025;-79
2021/06/01 03:32:42;;;;;;;0.43;0.43;;;;;;;10.98;100.00;97103.16;5013528;28;20467;-80
2021/06/01 03:35:08;;;;;;;0.35;0.30;;;;;;;10.92;100.00;97106.22;5030237;28;20427;-80
2021/06/01 03:37:35;;;;;;;1.75;0.82;;;;;;;10.88;100.00;97100.28;5033169;28;20029;-81
2021/06/01 03:40:00;;;;;;;0.68;0.68;;;;;;;10.93;100.00;97101.75;5033343;28;20041;-80
2021/06/01 03:42:26;;;;;;;0.80;0.68;;;;;;;10.83;100.00;97085.47;5050919;28;20036;-81
2021/06/01 03:44:51;;;;;;;0.75;0.75;;;;;;;10.99;100.00;97101.31;5016731;28;20055;-80
2021/06/01 03:47:17;;;;;;;1.20;0.90;;;;;;;11.04;100.00;97105.41;5016913;28;20029;-80
2021/06/01 03:49:43;;;;;;;1.33;0.65;;;;;;;11.04;100.00;97096.50;5031248;28;20389;-80
2021/06/01 03:52:09;;;;;;;2.08;0.40;;;;;;;11.07;100.00;97110.53;5017626;28;20499;-79
2021/06/01 03:54:35;;;;;;;0.75;0.35;;;;;;;11.08;100.00;97112.22;5034100;28;20041;-78
2021/06/01 03:57:01;;;;;;;0.47;0.47;;;;;;;11.03;100.00;97101.00;5020738;28;20025;-80
2021/06/01 03:59:27;;;;;;;1.27;1.17;;;;;;;11.05;100.00;97100.88;5037262;28;20029;-79
2021/06/01 04:01:52;;;;;;;0.80;0.60;;;;;;;11.15;100.00;97108.16;5018161;28;20110;-81
2021/06/01 04:04:18;;;;;;;0.50;0.50;;;;;;;11.13;100.00;97094.03;5020570;28;20035;-80
2021/06/01 04:06:43;;;;;;;0.55;0.55;;;;;;;11.11;100.00;97101.28;5034254;28;20026;-80
2021/06/01 04:09:09;;;;;;;0.35;0.25;;;;;;;11.10;100.00;97099.59;5037304;28;20112;-80
2021/06/01 04:11:34;;;;;;;0.77;0.77;;;;;;;11.21;100.00;97102.34;5020540;28;20057;-80
2021/06/01 04:14:00;;;;;;;1.02;0.60;;;;;;;11.24;100.00;97090.56;5036710;28;20086;-80
2021/06/01 04:16:26;;;;;;;0.95;0.52;;;;;;;11.09;100.00;97092.53;5017059;28;20397;-80
2021/06/01 04:18:51;;;;;;;2.42;1.00;;;;;;;11.19;100.00;97088.25;5020354;28;20488;-80
2021/06/01 04:21:17;;;;;;;1.95;0.50;;;;;;;11.38;100.00;97093.94;5020236;28;20020;-80
2021/06/01 04:23:42;;;;;;;1.48;0.77;;;;;;;11.48;100.00;97101.31;5019985;28;20061;-80
2021/06/01 04:26:08;;;;;;;2.05;1.17;;;;;;;11.56;100.00;97096.28;5016865;28;20025;-80
2021/06/01 04:28:33;;;;;;;3.85;1.27;;;;;;;11.56;100.00;97102.50;5016880;28;20026;-80
2021/06/01 04:30:59;;;;;;;0.65;0.47;;;;;;;11.59;100.00;97090.69;5033968;28;20065;-80
2021/06/01 04:33:24;;;;;;;1.13;0.47;;;;;;;11.57;100.00;97084.56;5016902;28;20033;-80
2021/06/01 04:35:50;;;;;;;4.45;1.50;;;;;;;11.59;100.00;97080.84;5018693;28;20112;-80
2021/06/01 04:38:16;;;;;;;4.20;2.55;;;;;;;11.63;100.00;97093.03;5020029;28;20472;-80
2021/06/01 04:40:41;;;;;;;0.75;0.57;;;;;;;11.60;100.00;97098.59;5019944;28;20021;-80
2021/06/01 04:43:07;;;;;;;1.13;1.00;;;;;;;11.52;100.00;97092.09;5016340;28;20084;-80
2021/06/01 04:45:33;;;;;;;1.20;0.73;;;;;;;11.39;100.00;97094.81;5019934;28;20108;-80
2021/06/01 04:47:59;;;;;;;17.65;9.43;;;;;;;11.47;100.00;97086.25;5032721;28;20064;-80
2021/06/01 04:50:24;;;;;;;5.80;2.70;;;;;;;11.57;100.00;97072.03;5032930;28;20057;-80
2021/06/01 04:52:50;;;;;;;9.05;3.03;;;;;;;11.75;100.00;97080.59;5033421;28;20467;-80
2021/06/01 04:55:16;;;;;;;0.85;0.57;;;;;;;11.87;100.00;97095.78;5019717;28;20104;-80
2021/06/01 04:57:42;;;;;;;1.02;0.73;;;;;;;11.80;100.00;97095.38;5032912;28;20029;-78
2021/06/01 05:00:09;;;;;;;1.23;0.68;;;;;;;11.78;100.00;97086.56;5032493;28;20029;-80
2021/06/01 05:02:34;;;;;;;1.65;1.13;;;;;;;11.74;100.00;97089.59;5015547;28;20034;-79
2021/06/01 05:05:00;;;;;;;5.63;1.42;;;;;;;11.83;100.00;97095.13;5015735;28;20033;-79
2021/06/01 05:07:26;;;;;;;1.25;1.15;;;;;;;11.87;100.00;97091.25;5015921;28;20061;-79
2021/06/01 05:09:51;;;;;;;0.63;0.57;;;;;;;11.99;100.00;97089.50;5035909;28;20057;-83
2021/06/01 05:12:17;;;;;;;2.28;0.77;;;;;;;12.20;100.00;97090.56;5019197;28;20049;-83
2021/06/01 05:14:42;;;;;;;2.88;0.88;;;;;;;12.37;100.00;97100.84;5017071;28;20021;-84
2021/06/01 05:17:08;;;;;;;1.52;0.98;;;;;;;12.55;100.00;97103.09;5020034;28;20044;-80
2021/06/01 05:19:33;;;;;;;2.33;1.10;;;;;;;12.45;100.00;97087.72;5015986;28;20088;-80
2021/06/01 05:21:59;;;;;;;4.22;1.52;;;;;;;12.51;100.00;97097.13;5035301;28;20025;-80
2021/06/01 05:24:25;;;;;;;3.17;1.75;;;;;;;12.45;100.00;97087.72;5015647;28;20033;-79
2021/06/01 05:26:50;;;;;;;2.25;0.77;;;;;;;12.43;100.00;97084.28;5018807;28;20036;-79
2021/06/01 05:29:16;;;;;;;1.65;1.05;;;;;;;12.37;100.00;97084.75;5019381;28;20029;-80
2021/06/01 05:31:47;;;;;;;1.55;1.02;;;;;;;12.44;100.00;97090.50;5015726;28;20455;-80
2021/06/01 05:34:13;;;;;;;1.20;1.10;;;;;;;12.40;100.00;97084.50;5019515;28;20021;-80
2021/06/01 05:36:40;;;;;;;3.45;1.75;;;;;;;12.34;100.00;97087.66;5015742;28;20029;-79
2021/06/01 05:39:07;;;;;;;1.98;0.95;;;;;;;12.58;100.00;97089.47;5017547;28;20514;-80
2021/06/01 05:41:33;;;;;;;1.80;0.50;;;;;;;12.61;100.00;97079.34;5015771;28;20120;-80
2021/06/01 05:43:59;;;;;;;0.65;0.55;;;;;;;12.76;100.00;97091.56;5035048;28;20100;-80
2021/06/01 05:46:24;;;;;;;6.05;1.40;;;;;;;12.77;100.00;97087.88;5015528;28;20030;-80
2021/06/01 05:48:50;;;;;;;3.10;1.50;;;;;;;12.85;100.00;97087.31;5018499;28;20025;-80
2021/06/01 05:51:17;;;;;;;1.25;0.77;;;;;;;12.88;100.00;97090.59;5018592;28;20392;-79
2021/06/01 05:53:44;;;;;;;1.05;1.02;;;;;;;12.96;100.00;97092.66;5015556;28;20502;-80
2021/06/01 05:56:10;;;;;;;8.25;4.60;;;;;;;12.99;100.00;97090.59;5015338;28;20036;-80
2021/06/01 05:58:35;;;;;;;2.67;2.08;;;;;;;12.97;100.00;97089.03;5031662;28;20029;-79
2021/06/01 06:01:01;;;;;;;0.88;0.70;;;;;;;12.88;100.00;97090.59;5018275;28;20065;-80
2021/06/01 06:03:26;;;;;;;1.85;1.00;;;;;;;12.86;100.00;97092.53;5035050;28;20047;-79
2021/06/01 06:05:52;;;;;;;0.70;0.70;;;;;;;12.64;100.00;97094.34;5016612;28;20037;-80
2021/06/01 06:08:19;;;;;;;4.68;1.52;;;;;;;12.61;100.00;97091.91;5033001;28;20035;-79
2021/06/01 06:10:47;;;;;;;1.13;0.95;;;;;;;12.64;100.00;97091.66;5031647;28;20036;-80
2021/06/01 06:13:14;;;;;;;1.02;0.85;;;;;;;12.62;100.00;97088.22;5014108;28;20151;-79
2021/06/01 06:15:40;;;;;;;0.38;0.35;;;;;;;12.58;100.00;97095.66;5014982;28;20033;-80
2021/06/01 06:18:47;;;;;;;1.35;1.25;;;;;;;12.62;100.00;97107.00;5017461;28;20067;-79
2021/06/01 06:21:13;;;;;;;0.95;0.90;;;;;;;12.55;100.00;97090.53;4999797;28;20041;-80
2021/06/01 06:23:42;;;;;;;5.38;1.10;;;;;;;12.42;100.00;97089.78;5015180;28;20125;-80
2021/06/01 06:26:08;;;;;;;1.65;1.15;;;;;;;12.42;100.00;97074.53;5017284;28;20037;-79
2021/06/01 06:28:34;;;;;;;0.52;0.45;;;;;;;12.44;100.00;97094.03;5015021;28;20029;-78
2021/06/01 06:31:00;;;;;;;1.15;0.98;;;;;;;12.46;100.00;97102.81;5041038;28;20403;-79
2021/06/01 06:33:33;;;;;;;1.45;1.35;;;;;;;12.47;100.00;97099.19;5032477;28;20530;-78
2021/06/01 06:35:58;;;;;;;1.98;1.42;;;;;;;12.49;100.00;97091.84;5014761;28;20095;-78
2021/06/01 06:38:24;;;;;;;1.27;1.17;;;;;;;12.46;100.00;97100.13;5017633;28;20025;-78
2021/06/01 06:41:05;;;;;;;0.80;0.68;;;;;;;12.54;100.00;97099.56;5014457;28;20036;-79
2021/06/01 06:43:31;;;;;;;0.55;0.55;;;;;;;12.52;100.00;97097.97;5007801;28;20053;-80
2021/06/01 06:45:56;;;;;;;0.88;0.82;;;;;;;12.61;100.00;97102.63;5010205;28;20128;-80
2021/06/01 06:48:22;;;;;;;1.92;1.40;;;;;;;12.67;100.00;97092.28;5040135;28;20115;-79
2021/06/01 06:50:47;;;;;;;1.58;0.98;;;;;;;12.82;100.00;97109.88;5017541;28;20029;-80
2021/06/01 06:53:13;;;;;;;2.30;1.38;;;;;;;12.98;100.00;97109.53;5014277;28;20022;-80
2021/06/01 06:55:39;;;;;;;3.33;1.40;;;;;;;12.98;100.00;97098.78;5014082;28;20519;-80
2021/06/01 06:58:04;;;;;;;0.50;0.47;;;;;;;12.91;100.00;97108.28;5014236;28;20030;-80
2021/06/01 07:00:30;;;;;;;2.10;1.10;;;;;;;12.95;100.00;97115.16;5033792;28;20033;-80
2021/06/01 07:02:56;;;;;;;5.30;1.85;;;;;;;12.95;100.00;97107.09;5017485;28;20032;-80
2021/06/01 07:05:21;;;;;;;0.70;0.63;;;;;;;13.10;100.00;97119.34;5016376;28;20510;-80
2021/06/01 07:07:49;;;;;;;0.60;0.60;;;;;;;13.21;100.00;97119.34;5017268;28;20376;-80
2021/06/01 07:10:16;;;;;;;0.98;0.85;;;;;;;13.29;100.00;97111.50;5031453;28;20435;-80
2021/06/01 07:12:43;;;;;;;0.82;0.82;;;;;;;13.47;100.00;97114.56;5017352;28;20033;-80
2021/06/01 07:15:13;;;;;;;2.20;1.23;;;;;;;14.09;98.49;97122.84;5016748;28;20024;-80
2021/06/01 07:17:42;;;;;;;2.17;0.75;;;;;;;14.55;95.59;97119.94;5013846;28;20408;-80
2021/06/01 07:20:13;;;;;;;1.17;0.77;;;;;;;15.10;92.15;97124.13;5014187;28;20036;-79
2021/06/01 07:22:39;;;;;;;3.08;1.75;;;;;;;15.19;87.61;97120.63;5014004;28;20033;-79
2021/06/01 07:25:06;;;;;;;1.35;1.08;;;;;;;15.54;86.62;97125.63;5029874;28;20025;-79
2021/06/01 07:27:34;;;;;;;2.63;1.08;;;;;;;15.62;86.57;97123.97;5030090;28;20099;-80
2021/06/01 07:29:59;;;;;;;3.67;1.35;;;;;;;15.54;85.66;97118.41;5013669;28;20025;-79
2021/06/01 07:32:25;;;;;;;2.55;1.50;;;;;;;15.53;85.49;97119.41;5033335;28;20506;-79
2021/06/01 07:34:50;;;;;;;1.35;0.60;;;;;;;15.70;85.81;97118.75;5033519;28;20017;-79
2021/06/01 07:37:16;;;;;;;6.63;2.42;;;;;;;15.76;89.43;97120.03;5016636;28;20519;-79
2021/06/01 07:39:43;;;;;;;3.53;2.75;;;;;;;15.75;85.93;97121.00;5029823;28;20527;-79
2021/06/01 07:42:09;;;;;;;0.88;0.82;;;;;;;15.78;85.74;97120.75;5031211;28;20378;-78
2021/06/01 07:44:35;;;;;;;0.55;0.38;;;;;;;15.94;82.24;97112.13;5013336;28;20408;-79
2021/06/01 07:47:01;;;;;;;0.50;0.50;;;;;;;15.93;83.43;97118.53;5013485;28;20104;-78
2021/06/01 07:49:26;;;;;;;1.02;0.80;;;;;;;16.53;80.64;97120.16;5015431;28;20038;-78
2021/06/01 07:51:52;;;;;;;1.33;1.05;;;;;;;17.19;76.97;97124.66;5029961;28;20060;-79
2021/06/01 07:54:18;;;;;;;1.48;0.90;;;;;;;17.76;72.72;97118.22;5014232;28;20030;-79
2021/06/01 07:56:43;;;;;;;1.88;1.35;;;;;;;18.07;70.02;97115.19;5033339;28;20033;-79
2021/06/01 07:59:09;;;;;;;2.97;0.82;;;;;;;18.42;67.61;97112.53;5013179;28;20036;-79
2021/06/01 08:01:34;;;;;;;0.55;0.55;;;;;;;20.09;61.59;97123.03;5030086;28;20473;-79
2021/06/01 08:04:00;;;;;;;1.17;0.98;;;;;;;22.57;51.79;97124.88;5013459;28;20024;-79
2021/06/01 08:06:29;;;;;;;3.33;2.13;;;;;;;23.63;50.66;97125.75;5012926;28;20041;-79
2021/06/01 08:08:55;;;;;;;0.82;0.82;;;;;;;23.07;47.71;97129.00;5013722;28;20028;-78
2021/06/01 08:11:20;;;;;;;3.30;2.42;;;;;;;23.56;46.49;97126.69;5039623;28;20025;-79
2021/06/01 08:13:46;;;;;;;3.05;1.75;;;;;;;24.99;40.94;97129.66;5032811;28;20032;-78
2021/06/01 08:16:12;;;;;;;0.50;0.40;;;;;;;23.97;42.25;97124.34;5016132;28;20021;-79
2021/06/01 08:18:42;;;;;;;0.40;0.22;;;;;;;22.87;45.16;97141.41;5029550;28;20025;-78
2021/06/01 08:21:11;;;;;;;0.55;0.40;;;;;;;22.39;47.52;97137.94;5033299;28;20017;-78
2021/06/01 08:23:37;;;;;;;0.95;0.60;;;;;;;21.48;54.67;97133.94;5016515;28;20036;-79
2021/06/01 08:26:07;;;;;;;2.53;0.82;;;;;;;20.60;54.49;97124.75;5032826;28;20536;-80
2021/06/01 08:28:40;;;;;;;0.30;0.30;;;;;;;20.52;57.57;97116.56;5014037;28;20029;-78
2021/06/01 08:31:05;;;;;;;1.48;0.47;;;;;;;20.32;57.21;97115.19;5033836;28;20047;-78
2021/06/01 08:33:31;;;;;;;1.55;1.00;;;;;;;20.81;57.17;97119.69;5032483;28;20025;-79
2021/06/01 08:35:58;;;;;;;1.33;0.93;;;;;;;20.64;56.65;97131.53;5032844;28;20511;-79
2021/06/01 08:38:23;;;;;;;1.80;0.77;;;;;;;20.48;55.11;97110.66;5032910;28;20495;-79
2021/06/01 08:40:51;;;;;;;1.05;0.55;;;;;;;20.13;55.31;97123.56;5033018;28;20017;-79
2021/06/01 08:43:25;;;;;;;0.38;0.38;;;;;;;20.35;57.17;97137.44;5016754;28;20053;-79
2021/06/01 08:45:53;;;;;;;0.60;0.47;;;;;;;20.28;56.32;97128.25;5009457;28;20053;-79
2021/06/01 08:48:21;;;;;;;0.05;0.05;;;;;;;20.57;59.35;97129.69;5033120;28;20033;-79
2021/06/01 08:50:49;;;;;;;0.20;0.20;;;;;;;20.30;53.23;97117.22;5008218;28;20044;-79
2021/06/01 08:53:15;;;;;;;0.10;0.05;;;;;;;19.90;53.55;97131.47;5016130;28;20104;-79
2021/06/01 08:55:42;;;;;;;1.00;0.28;;;;;;;19.86;55.67;97120.09;5019170;28;20036;-79
2021/06/01 08:58:25;;;;;;;0.45;0.45;;;;;;;21.55;49.79;97111.31;5036028;28;20031;-79
2021/06/01 09:00:51;;;;;;;0.55;0.55;;;;;;;22.31;47.27;97134.38;5032283;28;20525;-79
2021/06/01 09:03:20;;;;;;;0.45;0.30;;;;;;;22.40;47.37;97115.09;5032594;28;20037;-80
2021/06/01 09:11:59;;;;;;;0.17;0.17;;;;;;;22.48;48.45;97127.84;5045109;28;20479;-79
2021/06/01 09:22:56;;;;;;;0.30;0.30;;;;;;;22.62;52.00;97125.19;5034201;28;20463;-80
2021/06/01 09:25:54;;;;;;;0.35;0.35;;;;;;;21.45;53.32;97116.09;5018654;28;20025;-80
2021/06/01 09:28:20;;;;;;;0.10;0.10;;;;;;;20.27;56.29;97126.53;5019089;28;20110;-81
2021/06/01 09:30:58;;;;;;;0.50;0.28;;;;;;;19.77;59.99;97131.06;5034689;28;20034;-82
2021/06/01 09:33:28;;;;;;;0.20;0.20;;;;;;;18.99;65.93;97124.75;5032843;28;20064;-81
2021/06/01 09:36:02;;;;;;;0.30;0.25;;;;;;;18.14;71.97;97127.97;5015417;28;20053;-80
2021/06/01 09:38:45;;;;;;;1.10;0.73;;;;;;;17.49;75.98;97126.28;5035125;28;20404;-79
2021/06/01 09:41:16;;;;;;;0.80;0.50;;;;;;;17.20;79.04;97120.94;5015282;28;20029;-80
2021/06/01 09:44:04;;;;;;;0.28;0.15;;;;;;;16.58;82.24;97120.63;5034940;28;20041;-80
2021/06/01 09:46:38;;;;;;;0.82;0.63;;;;;;;16.14;84.34;97128.22;5031666;28;20029;-79
2021/06/01 09:49:12;;;;;;;0.20;0.20;;;;;;;15.92;86.60;97130.31;5015044;28;20029;-80
2021/06/01 09:51:43;;;;;;;1.55;0.85;;;;;;;15.66;89.69;97120.00;5031251;28;20061;-79
2021/06/01 09:54:28;;;;;;;0.15;0.15;;;;;;;15.43;90.79;97123.84;5015158;28;20025;-80
2021/06/01 09:56:54;;;;;;;0.95;0.25;;;;;;;15.26;90.58;97123.66;5031449;28;20083;-80
2021/06/01 09:59:20;;;;;;;0.73;0.73;;;;;;;15.03;92.61;97121.09;5031467;28;20025;-80
2021/06/01 10:01:46;;;;;;;0.08;0.05;;;;;;;15.00;89.86;97123.19;5031317;28;20454;-80
2021/06/01 10:04:28;;;;;;;0.35;0.35;;;;;;;14.95;88.78;97122.75;5015037;28;20047;-79
2021/06/01 10:06:54;;;;;;;0.63;0.63;;;;;;;15.06;88.02;97120.84;5014994;28;20124;-80
2021/06/01 10:09:20;;;;;;;0.30;0.20;;;;;;;15.17;88.71;97125.28;5014915;28;20083;-79
2021/06/01 10:11:54;;;;;;;0.22;0.22;;;;;;;15.29;86.52;97118.81;5033012;28;20033;-80
2021/06/01 10:14:20;;;;;;;1.38;0.35;;;;;;;15.66;87.89;97113.75;5031437;28;20056;-82
2021/06/01 10:16:45;;;;;;;0.08;0.08;;;;;;;16.05;82.85;97115.56;5018127;28;20442;-79
2021/06/01 10:19:11;;;;;;;17.25;0.50;;;;;;;16.28;83.22;97108.06;5052546;28;20025;-82
2021/06/01 10:21:37;;;;;;;0.10;0.10;;;;;;;16.89;78.59;97118.63;5017769;28;20021;-82
2021/06/01 10:24:03;;;;;;;0.60;0.20;;;;;;;17.50;75.09;97125.28;5017836;28;20075;-84
2021/06/01 10:26:28;;;;;;;0.28;0.25;;;;;;;17.99;75.92;97125.94;5014731;28;20056;-82
2021/06/01 10:28:55;;;;;;;0.13;0.13;;;;;;;18.90;72.72;97112.16;5014630;28;20040;-85
2021/06/01 10:31:21;;;;;;;0.20;0.20;;;;;;;18.75;65.20;97120.00;5014637;28;20024;-83
2021/06/01 10:33:47;;;;;;;0.17;0.10;;;;;;;18.45;67.66;97119.50;5030724;28;20099;-84
2021/06/01 10:50:34;;;;;;;0.50;0.50;;;;;;;16.70;74.48;97122.19;5030703;28;20120;-83
2021/06/01 10:53:28;;;;;;;0.03;0.03;;;;;;;16.27;80.31;97130.66;5031716;28;20053;-83
2021/06/01 10:56:04;;;;;;;0.25;0.10;;;;;;;16.14;80.54;97120.13;5017014;28;20033;-83
2021/06/01 10:58:39;;;;;;;0.57;0.40;;;;;;;16.41;81.68;97132.09;5034038;28;20464;-83
2021/06/01 11:04:22;;;;;;;0.20;0.20;;;;;;;16.58;79.88;97134.13;5031709;28;20052;-84
2021/06/01 11:09:34;;;;;;;0.77;0.50;;;;;;;16.93;83.84;97126.28;5051920;28;20033;-84
2021/06/01 11:12:22;;;;;;;0.63;0.38;;;;;;;17.05;78.69;97140.47;5030104;28;20068;-83
2021/06/01 11:14:51;;;;;;;1.05;0.85;;;;;;;17.08;82.22;97137.47;5030101;28;20029;-82
2021/06/01 11:17:41;;;;;;;0.17;0.08;;;;;;;17.14;80.11;97136.88;5013766;28;20116;-83
2021/06/01 11:20:10;;;;;;;0.10;0.10;;;;;;;17.14;78.60;97145.00;5013936;28;20036;-84
2021/06/01 11:33:17;;;;;;;6.75;1.27;;;;;;;16.59;87.82;97160.97;5028850;28;20036;-83
2021/06/01 11:35:45;;;;;;;0.00;0.00;;;;;;;16.30;89.59;97157.38;5037252;28;20063;-83
2021/06/01 11:38:22;;;;;;;0.95;0.40;;;;;;;16.05;89.29;97149.78;5030332;28;20496;-83
2021/06/01 11:43:24;;;;;;;0.38;0.38;;;;;;;15.73;93.16;97161.63;5029988;28;20124;-83
2021/06/01 11:51:18;;;;;;;0.63;0.57;;;;;;;15.30;97.94;97163.66;5033239;28;20032;-84
2021/06/01 11:53:55;;;;;;;0.17;0.10;;;;;;;15.06;97.68;97171.16;5033256;28;20036;-84
2021/06/01 12:02:03;;;;;;;0.17;0.17;;;;;;;14.71;100.00;97184.91;5029968;28;20033;-83
2021/06/01 12:18:42;;;;;;;0.98;0.38;;;;;;;13.95;99.55;97174.25;5034302;28;20094;-83
2021/06/01 12:21:23;;;;;;;0.50;0.45;;;;;;;13.84;98.39;97190.41;5019149;28;20033;-83
2021/06/01 12:24:01;;;;;;;0.57;0.40;;;;;;;13.84;100.00;97198.47;5033765;28;20029;-83
2021/06/01 12:32:03;;;;;;;0.00;0.00;;;;;;;13.96;100.00;97194.78;5039608;28;20039;-83
2021/06/01 13:08:52;;;;;;;2.38;1.48;;;;;;;13.93;100.00;97208.50;5033977;28;20099;-81
2021/06/01 13:19:39;;;;;;;0.47;0.43;;;;;;;13.83;100.00;97212.88;5036591;28;20461;-83
2021/06/01 13:36:22;;;;;;;5.43;2.17;;;;;;;13.94;91.20;97229.84;4998463;28;20084;-82
2021/06/01 13:40:21;;;;;;;8.05;4.72;;;;;;;13.97;89.97;97224.22;5032371;28;20026;-81
2021/06/01 13:46:28;;;;;;;;;;;;;;;13.32;92.92;97229.47;5029071;28;20095;-82
2021/06/01 13:56:44;;;;;;;1.75;1.30;;;;;;;13.76;93.06;97230.47;5029028;28;20089;-80
2021/06/01 15:50:26;;;;;;;6.93;0.22;;;;;;;14.21;100.00;97255.53;5027739;28;20044;-80
2021/06/01 15:53:26;;;;;;;0.10;0.10;;;;;;;14.43;100.00;97285.94;5017364;28;20556;-82
2021/06/01 17:05:23;;;;;;;0.70;0.70;;;;;;;13.04;100.00;97338.09;5031695;28;20104;-86
2021/06/01 17:08:02;;;;;;;0.85;0.40;;;;;;;13.08;100.00;97349.50;5017194;28;20032;-86
2021/06/01 17:13:14;;;;;;;0.80;0.35;;;;;;;13.04;100.00;97358.75;5032849;28;20048;-85